sensor_id;sensor_type;location;lat;lon;timestamp;temperature;humidity
61841;DHT22;47773;53.174;6.614;2023-08-12T00:00:30;20.40;99.90
61841;DHT22;47773;53.174;6.614;2023-08-12T00:02:56;20.40;99.90
61841;DHT22;47773;53.174;6.614;2023-08-12T00:05:22;20.40;99.90
61841;DHT22;47773;53.174;6.614;2023-08-12T00:07:48;20.30;99.90
61841;DHT22;47773;53.174;6.614;2023-08-12T00:10:14;20.30;99.90
61841;DHT22;47773;53.174;6.614;2023-08-12T00:12:41;20.30;99.90
61841;DHT22;47773;53.174;6.614;2023-08-12T00:15:07;20.30;99.90
61841;DHT22;47773;53.174;6.614;2023-08-12T00:17:34;20.30;99.90
61841;DHT22;47773;53.174;6.614;2023-08-12T00:20:01;20.20;99.90
61841;DHT22;47773;53.174;6.614;2023-08-12T00:22:31;20.20;99.90
61841;DHT22;47773;53.174;6.614;2023-08-12T00:24:56;20.20;99.90
61841;DHT22;47773;53.174;6.614;2023-08-12T00:27:22;20.20;99.90
61841;DHT22;47773;53.174;6.614;2023-08-12T00:29:48;20.20;99.90
61841;DHT22;47773;53.174;6.614;2023-08-12T00:32:14;20.20;99.90
61841;DHT22;47773;53.174;6.614;2023-08-12T00:34:39;20.20;99.90
61841;DHT22;47773;53.174;6.614;2023-08-12T00:37:05;20.20;99.90
61841;DHT22;47773;53.174;6.614;2023-08-12T00:39:31;20.20;99.90
61841;DHT22;47773;53.174;6.614;2023-08-12T00:41:56;20.20;99.90
61841;DHT22;47773;53.174;6.614;2023-08-12T00:44:22;20.20;99.90
61841;DHT22;47773;53.174;6.614;2023-08-12T00:46:48;20.20;99.90
61841;DHT22;47773;53.174;6.614;2023-08-12T00:49:15;20.20;99.90
61841;DHT22;47773;53.174;6.614;2023-08-12T00:51:42;20.10;99.90
61841;DHT22;47773;53.174;6.614;2023-08-12T00:54:14;20.10;99.90
61841;DHT22;47773;53.174;6.614;2023-08-12T00:56:40;20.00;99.90
61841;DHT22;47773;53.174;6.614;2023-08-12T00:59:07;20.00;99.90
61841;DHT22;47773;53.174;6.614;2023-08-12T01:01:35;20.00;99.90
61841;DHT22;47773;53.174;6.614;2023-08-12T01:04:01;20.00;99.90
61841;DHT22;47773;53.174;6.614;2023-08-12T01:06:27;20.00;99.90
61841;DHT22;47773;53.174;6.614;2023-08-12T01:08:53;20.00;99.90
61841;DHT22;47773;53.174;6.614;2023-08-12T01:11:42;20.00;99.90
61841;DHT22;47773;53.174;6.614;2023-08-12T01:14:35;20.00;99.90
61841;DHT22;47773;53.174;6.614;2023-08-12T01:17:06;20.00;99.90
61841;DHT22;47773;53.174;6.614;2023-08-12T01:19:37;19.90;99.90
61841;DHT22;47773;53.174;6.614;2023-08-12T01:22:04;19.90;99.90
61841;DHT22;47773;53.174;6.614;2023-08-12T01:24:39;19.90;99.90
61841;DHT22;47773;53.174;6.614;2023-08-12T01:27:05;20.00;99.90
61841;DHT22;47773;53.174;6.614;2023-08-12T01:29:33;20.00;99.90
61841;DHT22;47773;53.174;6.614;2023-08-12T01:32:23;20.00;99.90
61841;DHT22;47773;53.174;6.614;2023-08-12T01:35:04;20.00;99.90
61841;DHT22;47773;53.174;6.614;2023-08-12T01:37:32;19.90;99.90
61841;DHT22;47773;53.174;6.614;2023-08-12T01:40:01;19.90;99.90
61841;DHT22;47773;53.174;6.614;2023-08-12T01:42:30;19.90;99.90
61841;DHT22;47773;53.174;6.614;2023-08-12T01:44:57;19.90;99.90
61841;DHT22;47773;53.174;6.614;2023-08-12T01:47:23;19.90;99.90
61841;DHT22;47773;53.174;6.614;2023-08-12T01:49:49;19.90;99.90
61841;DHT22;47773;53.174;6.614;2023-08-12T01:52:15;19.90;99.90
61841;DHT22;47773;53.174;6.614;2023-08-12T01:54:41;19.90;99.90
61841;DHT22;47773;53.174;6.614;2023-08-12T01:57:06;19.90;99.90
61841;DHT22;47773;53.174;6.614;2023-08-12T01:59:34;19.80;99.90
61841;DHT22;47773;53.174;6.614;2023-08-12T02:02:00;19.80;99.90
61841;DHT22;47773;53.174;6.614;2023-08-12T02:04:26;19.80;99.90
61841;DHT22;47773;53.174;6.614;2023-08-12T02:06:52;19.80;99.90
61841;DHT22;47773;53.174;6.614;2023-08-12T02:09:18;19.80;99.90
61841;DHT22;47773;53.174;6.614;2023-08-12T02:11:44;19.70;99.90
61841;DHT22;47773;53.174;6.614;2023-08-12T02:14:09;19.70;99.90
61841;DHT22;47773;53.174;6.614;2023-08-12T02:16:35;19.70;99.90
61841;DHT22;47773;53.174;6.614;2023-08-12T02:19:01;19.70;99.90
61841;DHT22;47773;53.174;6.614;2023-08-12T02:21:26;19.70;99.90
61841;DHT22;47773;53.174;6.614;2023-08-12T02:23:52;19.70;99.90
61841;DHT22;47773;53.174;6.614;2023-08-12T02:26:18;19.70;99.90
61841;DHT22;47773;53.174;6.614;2023-08-12T02:28:43;19.60;99.90
61841;DHT22;47773;53.174;6.614;2023-08-12T02:31:09;19.60;99.90
61841;DHT22;47773;53.174;6.614;2023-08-12T02:33:35;19.60;99.90
61841;DHT22;47773;53.174;6.614;2023-08-12T02:36:00;19.60;99.90
61841;DHT22;47773;53.174;6.614;2023-08-12T02:38:26;19.60;99.90
61841;DHT22;47773;53.174;6.614;2023-08-12T02:40:51;19.60;99.90
61841;DHT22;47773;53.174;6.614;2023-08-12T02:43:17;19.60;99.90
61841;DHT22;47773;53.174;6.614;2023-08-12T02:45:43;19.60;99.90
61841;DHT22;47773;53.174;6.614;2023-08-12T02:48:12;19.60;99.90
61841;DHT22;47773;53.174;6.614;2023-08-12T02:50:38;19.60;99.90
61841;DHT22;47773;53.174;6.614;2023-08-12T02:53:05;19.60;99.90
61841;DHT22;47773;53.174;6.614;2023-08-12T02:55:31;19.60;99.90
61841;DHT22;47773;53.174;6.614;2023-08-12T02:57:58;19.60;99.90
61841;DHT22;47773;53.174;6.614;2023-08-12T03:00:23;19.60;99.90
61841;DHT22;47773;53.174;6.614;2023-08-12T03:02:49;19.60;99.90
61841;DHT22;47773;53.174;6.614;2023-08-12T03:05:15;19.60;99.90
61841;DHT22;47773;53.174;6.614;2023-08-12T03:07:41;19.60;99.90
61841;DHT22;47773;53.174;6.614;2023-08-12T03:10:07;19.60;99.90
61841;DHT22;47773;53.174;6.614;2023-08-12T03:12:33;19.60;99.90
61841;DHT22;47773;53.174;6.614;2023-08-12T03:14:59;19.60;99.90
61841;DHT22;47773;53.174;6.614;2023-08-12T03:17:25;19.60;99.90
61841;DHT22;47773;53.174;6.614;2023-08-12T03:19:51;19.60;99.90
61841;DHT22;47773;53.174;6.614;2023-08-12T03:22:16;19.60;99.90
61841;DHT22;47773;53.174;6.614;2023-08-12T03:24:42;19.60;99.90
61841;DHT22;47773;53.174;6.614;2023-08-12T03:27:08;19.60;99.90
61841;DHT22;47773;53.174;6.614;2023-08-12T03:29:33;19.50;99.90
61841;DHT22;47773;53.174;6.614;2023-08-12T03:31:59;19.50;99.90
61841;DHT22;47773;53.174;6.614;2023-08-12T03:34:30;19.50;99.90
61841;DHT22;47773;53.174;6.614;2023-08-12T03:36:56;19.50;99.90
61841;DHT22;47773;53.174;6.614;2023-08-12T03:39:22;19.50;99.90
61841;DHT22;47773;53.174;6.614;2023-08-12T03:41:47;19.40;99.90
61841;DHT22;47773;53.174;6.614;2023-08-12T03:44:15;19.40;99.90
61841;DHT22;47773;53.174;6.614;2023-08-12T03:46:41;19.40;99.90
61841;DHT22;47773;53.174;6.614;2023-08-12T03:49:07;19.40;99.90
61841;DHT22;47773;53.174;6.614;2023-08-12T03:51:33;19.40;99.90
61841;DHT22;47773;53.174;6.614;2023-08-12T03:53:59;19.40;99.90
61841;DHT22;47773;53.174;6.614;2023-08-12T03:56:25;19.50;99.90
61841;DHT22;47773;53.174;6.614;2023-08-12T03:58:51;19.40;99.90
61841;DHT22;47773;53.174;6.614;2023-08-12T04:01:17;19.40;99.90
61841;DHT22;47773;53.174;6.614;2023-08-12T04:03:43;19.40;99.90
61841;DHT22;47773;53.174;6.614;2023-08-12T04:06:09;19.50;99.90
61841;DHT22;47773;53.174;6.614;2023-08-12T04:08:34;19.40;99.90
61841;DHT22;47773;53.174;6.614;2023-08-12T04:11:00;19.40;99.90
61841;DHT22;47773;53.174;6.614;2023-08-12T04:13:26;19.50;99.90
61841;DHT22;47773;53.174;6.614;2023-08-12T04:15:52;19.40;99.90
61841;DHT22;47773;53.174;6.614;2023-08-12T04:18:21;19.50;99.90
61841;DHT22;47773;53.174;6.614;2023-08-12T04:20:48;19.40;99.90
61841;DHT22;47773;53.174;6.614;2023-08-12T04:23:15;19.50;99.90
61841;DHT22;47773;53.174;6.614;2023-08-12T04:25:44;19.40;99.90
61841;DHT22;47773;53.174;6.614;2023-08-12T04:28:11;19.40;99.90
61841;DHT22;47773;53.174;6.614;2023-08-12T04:30:44;19.40;99.90
61841;DHT22;47773;53.174;6.614;2023-08-12T04:33:09;19.40;99.90
61841;DHT22;47773;53.174;6.614;2023-08-12T04:35:35;19.40;99.90
61841;DHT22;47773;53.174;6.614;2023-08-12T04:38:01;19.50;99.90
61841;DHT22;47773;53.174;6.614;2023-08-12T04:40:27;19.50;99.90
61841;DHT22;47773;53.174;6.614;2023-08-12T04:42:52;19.50;99.90
61841;DHT22;47773;53.174;6.614;2023-08-12T04:45:18;19.50;99.90
61841;DHT22;47773;53.174;6.614;2023-08-12T04:47:44;19.50;99.90
61841;DHT22;47773;53.174;6.614;2023-08-12T04:50:09;19.50;99.90
61841;DHT22;47773;53.174;6.614;2023-08-12T04:52:36;19.50;99.90
61841;DHT22;47773;53.174;6.614;2023-08-12T04:55:01;19.50;99.90
61841;DHT22;47773;53.174;6.614;2023-08-12T04:57:28;19.50;99.90
61841;DHT22;47773;53.174;6.614;2023-08-12T04:59:54;19.50;99.90
61841;DHT22;47773;53.174;6.614;2023-08-12T05:02:20;19.50;99.90
61841;DHT22;47773;53.174;6.614;2023-08-12T05:04:50;19.50;99.90
61841;DHT22;47773;53.174;6.614;2023-08-12T05:07:16;19.50;99.90
61841;DHT22;47773;53.174;6.614;2023-08-12T05:09:42;19.50;99.90
61841;DHT22;47773;53.174;6.614;2023-08-12T05:12:10;19.50;99.90
61841;DHT22;47773;53.174;6.614;2023-08-12T05:14:37;19.60;99.90
61841;DHT22;47773;53.174;6.614;2023-08-12T05:17:02;19.60;99.90
61841;DHT22;47773;53.174;6.614;2023-08-12T05:19:28;19.60;99.90
61841;DHT22;47773;53.174;6.614;2023-08-12T05:21:54;19.60;99.90
61841;DHT22;47773;53.174;6.614;2023-08-12T05:24:19;19.70;99.90
61841;DHT22;47773;53.174;6.614;2023-08-12T05:26:45;19.70;99.90
61841;DHT22;47773;53.174;6.614;2023-08-12T05:29:12;19.80;99.90
61841;DHT22;47773;53.174;6.614;2023-08-12T05:31:38;19.80;99.90
61841;DHT22;47773;53.174;6.614;2023-08-12T05:34:04;19.90;99.90
61841;DHT22;47773;53.174;6.614;2023-08-12T05:36:29;20.00;99.90
61841;DHT22;47773;53.174;6.614;2023-08-12T05:38:55;20.00;99.90
61841;DHT22;47773;53.174;6.614;2023-08-12T05:41:21;20.10;99.90
61841;DHT22;47773;53.174;6.614;2023-08-12T05:43:48;20.10;99.90
61841;DHT22;47773;53.174;6.614;2023-08-12T05:46:14;20.10;99.90
61841;DHT22;47773;53.174;6.614;2023-08-12T05:48:39;20.20;99.90
61841;DHT22;47773;53.174;6.614;2023-08-12T05:51:05;20.20;99.90
61841;DHT22;47773;53.174;6.614;2023-08-12T05:53:31;20.20;99.90
61841;DHT22;47773;53.174;6.614;2023-08-12T05:55:57;20.20;99.90
61841;DHT22;47773;53.174;6.614;2023-08-12T05:58:23;20.20;99.90
61841;DHT22;47773;53.174;6.614;2023-08-12T06:00:48;20.20;99.90
61841;DHT22;47773;53.174;6.614;2023-08-12T06:03:15;20.20;99.90
61841;DHT22;47773;53.174;6.614;2023-08-12T06:05:42;20.20;99.90
61841;DHT22;47773;53.174;6.614;2023-08-12T06:08:08;20.30;99.90
61841;DHT22;47773;53.174;6.614;2023-08-12T06:10:33;20.30;99.90
61841;DHT22;47773;53.174;6.614;2023-08-12T06:13:00;20.30;99.90
61841;DHT22;47773;53.174;6.614;2023-08-12T06:15:26;20.30;99.90
61841;DHT22;47773;53.174;6.614;2023-08-12T06:17:51;20.40;99.90
61841;DHT22;47773;53.174;6.614;2023-08-12T06:20:17;20.40;99.90
61841;DHT22;47773;53.174;6.614;2023-08-12T06:22:42;20.50;99.90
61841;DHT22;47773;53.174;6.614;2023-08-12T06:25:08;20.50;99.90
61841;DHT22;47773;53.174;6.614;2023-08-12T06:27:34;20.50;99.90
61841;DHT22;47773;53.174;6.614;2023-08-12T06:29:59;20.50;99.90
61841;DHT22;47773;53.174;6.614;2023-08-12T06:32:25;20.40;99.90
61841;DHT22;47773;53.174;6.614;2023-08-12T06:34:51;20.50;99.90
61841;DHT22;47773;53.174;6.614;2023-08-12T06:37:16;20.50;99.90
61841;DHT22;47773;53.174;6.614;2023-08-12T06:39:42;20.50;99.90
61841;DHT22;47773;53.174;6.614;2023-08-12T06:42:08;20.50;99.90
61841;DHT22;47773;53.174;6.614;2023-08-12T06:44:33;20.50;99.90
61841;DHT22;47773;53.174;6.614;2023-08-12T06:46:59;20.50;99.90
61841;DHT22;47773;53.174;6.614;2023-08-12T06:49:25;20.50;99.90
61841;DHT22;47773;53.174;6.614;2023-08-12T06:51:50;20.50;99.90
61841;DHT22;47773;53.174;6.614;2023-08-12T06:54:16;20.60;99.90
61841;DHT22;47773;53.174;6.614;2023-08-12T06:56:41;20.60;99.90
61841;DHT22;47773;53.174;6.614;2023-08-12T06:59:07;20.70;99.90
61841;DHT22;47773;53.174;6.614;2023-08-12T07:01:33;20.70;99.90
61841;DHT22;47773;53.174;6.614;2023-08-12T07:03:58;20.70;99.90
61841;DHT22;47773;53.174;6.614;2023-08-12T07:06:24;20.70;99.90
61841;DHT22;47773;53.174;6.614;2023-08-12T07:08:50;20.70;99.90
61841;DHT22;47773;53.174;6.614;2023-08-12T07:11:15;20.70;99.90
61841;DHT22;47773;53.174;6.614;2023-08-12T07:13:41;20.70;99.90
61841;DHT22;47773;53.174;6.614;2023-08-12T07:16:08;20.70;99.90
61841;DHT22;47773;53.174;6.614;2023-08-12T07:18:34;20.80;99.90
61841;DHT22;47773;53.174;6.614;2023-08-12T07:20:59;20.80;99.90
61841;DHT22;47773;53.174;6.614;2023-08-12T07:23:25;20.80;99.90
61841;DHT22;47773;53.174;6.614;2023-08-12T07:25:51;20.80;99.90
61841;DHT22;47773;53.174;6.614;2023-08-12T07:28:17;20.80;99.90
61841;DHT22;47773;53.174;6.614;2023-08-12T07:30:42;20.90;99.90
61841;DHT22;47773;53.174;6.614;2023-08-12T07:33:08;20.90;99.90
61841;DHT22;47773;53.174;6.614;2023-08-12T07:35:35;20.90;99.90
61841;DHT22;47773;53.174;6.614;2023-08-12T07:38:00;20.90;99.90
61841;DHT22;47773;53.174;6.614;2023-08-12T07:40:26;20.90;99.90
61841;DHT22;47773;53.174;6.614;2023-08-12T07:42:52;21.00;99.90
61841;DHT22;47773;53.174;6.614;2023-08-12T07:45:18;21.00;99.90
61841;DHT22;47773;53.174;6.614;2023-08-12T07:47:43;21.00;99.90
61841;DHT22;47773;53.174;6.614;2023-08-12T07:50:09;21.00;99.90
61841;DHT22;47773;53.174;6.614;2023-08-12T07:52:36;21.10;99.90
61841;DHT22;47773;53.174;6.614;2023-08-12T07:55:02;21.10;99.90
61841;DHT22;47773;53.174;6.614;2023-08-12T07:57:28;21.10;99.90
61841;DHT22;47773;53.174;6.614;2023-08-12T07:59:53;21.10;99.90
61841;DHT22;47773;53.174;6.614;2023-08-12T08:02:19;21.10;99.90
61841;DHT22;47773;53.174;6.614;2023-08-12T08:04:45;21.10;99.90
61841;DHT22;47773;53.174;6.614;2023-08-12T08:07:16;21.10;99.90
61841;DHT22;47773;53.174;6.614;2023-08-12T08:09:43;21.00;99.90
61841;DHT22;47773;53.174;6.614;2023-08-12T08:12:10;21.10;99.90
61841;DHT22;47773;53.174;6.614;2023-08-12T08:14:36;21.00;99.90
61841;DHT22;47773;53.174;6.614;2023-08-12T08:17:02;21.10;99.90
61841;DHT22;47773;53.174;6.614;2023-08-12T08:19:28;21.10;99.90
61841;DHT22;47773;53.174;6.614;2023-08-12T08:21:54;21.10;99.90
61841;DHT22;47773;53.174;6.614;2023-08-12T08:24:20;21.10;99.90
61841;DHT22;47773;53.174;6.614;2023-08-12T08:26:45;21.10;99.90
61841;DHT22;47773;53.174;6.614;2023-08-12T08:29:13;21.20;99.90
61841;DHT22;47773;53.174;6.614;2023-08-12T08:31:39;21.20;99.90
61841;DHT22;47773;53.174;6.614;2023-08-12T08:34:04;21.20;99.90
61841;DHT22;47773;53.174;6.614;2023-08-12T08:36:30;21.20;99.90
61841;DHT22;47773;53.174;6.614;2023-08-12T08:38:56;21.30;99.90
61841;DHT22;47773;53.174;6.614;2023-08-12T08:41:22;21.30;99.90
61841;DHT22;47773;53.174;6.614;2023-08-12T08:43:50;21.30;99.90
61841;DHT22;47773;53.174;6.614;2023-08-12T08:46:18;21.30;99.90
61841;DHT22;47773;53.174;6.614;2023-08-12T08:48:44;21.30;99.90
61841;DHT22;47773;53.174;6.614;2023-08-12T08:51:11;21.30;99.90
61841;DHT22;47773;53.174;6.614;2023-08-12T08:53:41;21.30;99.90
61841;DHT22;47773;53.174;6.614;2023-08-12T08:56:07;21.30;99.90
61841;DHT22;47773;53.174;6.614;2023-08-12T08:58:34;21.30;99.90
61841;DHT22;47773;53.174;6.614;2023-08-12T09:01:00;21.30;99.90
61841;DHT22;47773;53.174;6.614;2023-08-12T09:03:27;21.20;99.90
61841;DHT22;47773;53.174;6.614;2023-08-12T09:05:54;21.20;99.90
61841;DHT22;47773;53.174;6.614;2023-08-12T09:08:21;21.20;99.90
61841;DHT22;47773;53.174;6.614;2023-08-12T09:10:48;21.20;99.90
61841;DHT22;47773;53.174;6.614;2023-08-12T09:13:14;21.20;99.90
61841;DHT22;47773;53.174;6.614;2023-08-12T09:15:42;21.10;99.90
61841;DHT22;47773;53.174;6.614;2023-08-12T09:18:08;21.10;99.90
61841;DHT22;47773;53.174;6.614;2023-08-12T09:20:34;21.00;99.90
61841;DHT22;47773;53.174;6.614;2023-08-12T09:23:01;21.00;99.90
61841;DHT22;47773;53.174;6.614;2023-08-12T09:25:28;21.00;99.90
61841;DHT22;47773;53.174;6.614;2023-08-12T09:27:58;21.00;99.90
61841;DHT22;47773;53.174;6.614;2023-08-12T09:30:26;21.10;99.90
61841;DHT22;47773;53.174;6.614;2023-08-12T09:33:00;21.10;99.90
61841;DHT22;47773;53.174;6.614;2023-08-12T09:35:36;21.10;99.90
61841;DHT22;47773;53.174;6.614;2023-08-12T09:38:07;21.10;99.90
61841;DHT22;47773;53.174;6.614;2023-08-12T09:40:35;21.10;99.90
61841;DHT22;47773;53.174;6.614;2023-08-12T09:43:01;21.10;99.90
61841;DHT22;47773;53.174;6.614;2023-08-12T09:45:27;21.10;99.90
61841;DHT22;47773;53.174;6.614;2023-08-12T09:47:54;21.10;99.90
61841;DHT22;47773;53.174;6.614;2023-08-12T09:50:23;21.10;99.90
61841;DHT22;47773;53.174;6.614;2023-08-12T09:52:52;21.10;99.90
61841;DHT22;47773;53.174;6.614;2023-08-12T09:55:19;21.10;99.90
61841;DHT22;47773;53.174;6.614;2023-08-12T09:57:51;21.10;99.90
61841;DHT22;47773;53.174;6.614;2023-08-12T10:00:23;21.10;99.90
61841;DHT22;47773;53.174;6.614;2023-08-12T10:02:52;21.10;99.90
61841;DHT22;47773;53.174;6.614;2023-08-12T10:05:31;21.00;99.90
61841;DHT22;47773;53.174;6.614;2023-08-12T10:07:57;21.00;99.90
61841;DHT22;47773;53.174;6.614;2023-08-12T10:10:24;21.00;99.90
61841;DHT22;47773;53.174;6.614;2023-08-12T10:12:50;21.00;99.90
61841;DHT22;47773;53.174;6.614;2023-08-12T10:15:17;21.00;99.90
61841;DHT22;47773;53.174;6.614;2023-08-12T10:17:43;21.00;99.90
61841;DHT22;47773;53.174;6.614;2023-08-12T10:20:13;21.00;99.90
61841;DHT22;47773;53.174;6.614;2023-08-12T10:22:40;21.00;99.90
61841;DHT22;47773;53.174;6.614;2023-08-12T10:25:07;21.00;99.90
61841;DHT22;47773;53.174;6.614;2023-08-12T10:27:34;21.00;99.90
61841;DHT22;47773;53.174;6.614;2023-08-12T10:30:03;21.00;99.90
61841;DHT22;47773;53.174;6.614;2023-08-12T10:32:31;21.00;99.90
61841;DHT22;47773;53.174;6.614;2023-08-12T10:34:58;21.00;99.90
61841;DHT22;47773;53.174;6.614;2023-08-12T10:37:25;21.00;99.90
61841;DHT22;47773;53.174;6.614;2023-08-12T10:39:54;21.00;99.90
61841;DHT22;47773;53.174;6.614;2023-08-12T10:42:39;21.00;99.90
61841;DHT22;47773;53.174;6.614;2023-08-12T10:45:05;21.00;99.90
61841;DHT22;47773;53.174;6.614;2023-08-12T10:47:41;20.90;99.90
61841;DHT22;47773;53.174;6.614;2023-08-12T10:50:17;20.80;99.90
61841;DHT22;47773;53.174;6.614;2023-08-12T10:52:43;20.80;99.90
61841;DHT22;47773;53.174;6.614;2023-08-12T10:55:21;20.80;99.90
61841;DHT22;47773;53.174;6.614;2023-08-12T10:57:48;20.80;99.90
61841;DHT22;47773;53.174;6.614;2023-08-12T11:00:18;20.70;99.90
61841;DHT22;47773;53.174;6.614;2023-08-12T11:03:00;20.70;99.90
61841;DHT22;47773;53.174;6.614;2023-08-12T11:05:36;20.70;99.90
61841;DHT22;47773;53.174;6.614;2023-08-12T11:08:02;20.80;99.90
61841;DHT22;47773;53.174;6.614;2023-08-12T11:10:33;20.80;99.90
61841;DHT22;47773;53.174;6.614;2023-08-12T11:12:59;20.80;99.90
61841;DHT22;47773;53.174;6.614;2023-08-12T11:15:44;20.80;99.90
61841;DHT22;47773;53.174;6.614;2023-08-12T11:18:15;20.70;99.90
61841;DHT22;47773;53.174;6.614;2023-08-12T11:20:47;20.70;99.90
61841;DHT22;47773;53.174;6.614;2023-08-12T11:23:13;20.60;99.90
61841;DHT22;47773;53.174;6.614;2023-08-12T11:25:40;20.60;99.90
61841;DHT22;47773;53.174;6.614;2023-08-12T11:28:07;20.60;99.90
61841;DHT22;47773;53.174;6.614;2023-08-12T11:30:33;20.70;99.90
61841;DHT22;47773;53.174;6.614;2023-08-12T11:33:00;20.70;99.90
61841;DHT22;47773;53.174;6.614;2023-08-12T11:35:26;20.70;99.90
61841;DHT22;47773;53.174;6.614;2023-08-12T11:37:53;20.80;99.90
61841;DHT22;47773;53.174;6.614;2023-08-12T11:40:21;20.80;99.90
61841;DHT22;47773;53.174;6.614;2023-08-12T11:42:48;20.80;99.90
61841;DHT22;47773;53.174;6.614;2023-08-12T11:45:17;20.80;99.90
61841;DHT22;47773;53.174;6.614;2023-08-12T11:47:43;20.80;99.90
61841;DHT22;47773;53.174;6.614;2023-08-12T11:50:10;20.90;99.90
61841;DHT22;47773;53.174;6.614;2023-08-12T11:52:37;20.80;99.90
61841;DHT22;47773;53.174;6.614;2023-08-12T11:55:04;20.80;99.90
61841;DHT22;47773;53.174;6.614;2023-08-12T11:57:31;20.70;99.90
61841;DHT22;47773;53.174;6.614;2023-08-12T12:00:00;20.70;99.90
61841;DHT22;47773;53.174;6.614;2023-08-12T12:02:28;20.70;99.90
61841;DHT22;47773;53.174;6.614;2023-08-12T12:04:53;20.60;99.90
61841;DHT22;47773;53.174;6.614;2023-08-12T12:07:24;20.60;99.90
61841;DHT22;47773;53.174;6.614;2023-08-12T12:09:52;20.60;99.90
61841;DHT22;47773;53.174;6.614;2023-08-12T12:12:21;20.50;99.90
61841;DHT22;47773;53.174;6.614;2023-08-12T12:14:47;20.40;99.90
61841;DHT22;47773;53.174;6.614;2023-08-12T12:17:14;20.20;99.90
61841;DHT22;47773;53.174;6.614;2023-08-12T12:19:40;20.10;99.90
61841;DHT22;47773;53.174;6.614;2023-08-12T12:22:06;20.00;99.90
61841;DHT22;47773;53.174;6.614;2023-08-12T12:24:44;19.80;99.90
61841;DHT22;47773;53.174;6.614;2023-08-12T12:27:12;19.70;99.90
61841;DHT22;47773;53.174;6.614;2023-08-12T12:29:37;19.70;99.90
61841;DHT22;47773;53.174;6.614;2023-08-12T12:32:03;19.70;99.90
61841;DHT22;47773;53.174;6.614;2023-08-12T12:34:29;19.50;99.90
61841;DHT22;47773;53.174;6.614;2023-08-12T12:36:55;19.40;99.90
61841;DHT22;47773;53.174;6.614;2023-08-12T12:39:21;19.50;99.90
61841;DHT22;47773;53.174;6.614;2023-08-12T12:41:49;19.50;99.90
61841;DHT22;47773;53.174;6.614;2023-08-12T12:44:15;19.80;99.90
61841;DHT22;47773;53.174;6.614;2023-08-12T12:46:40;20.00;99.90
61841;DHT22;47773;53.174;6.614;2023-08-12T12:49:06;20.20;99.90
61841;DHT22;47773;53.174;6.614;2023-08-12T12:51:32;20.20;99.90
61841;DHT22;47773;53.174;6.614;2023-08-12T12:53:58;20.20;99.90
61841;DHT22;47773;53.174;6.614;2023-08-12T12:56:23;20.20;99.90
61841;DHT22;47773;53.174;6.614;2023-08-12T12:58:49;20.30;99.90
61841;DHT22;47773;53.174;6.614;2023-08-12T13:01:15;20.30;99.90
61841;DHT22;47773;53.174;6.614;2023-08-12T13:03:40;20.30;99.90
61841;DHT22;47773;53.174;6.614;2023-08-12T13:06:06;20.40;99.90
61841;DHT22;47773;53.174;6.614;2023-08-12T13:08:32;20.60;99.90
61841;DHT22;47773;53.174;6.614;2023-08-12T13:10:58;20.80;99.90
61841;DHT22;47773;53.174;6.614;2023-08-12T13:13:24;21.00;99.90
61841;DHT22;47773;53.174;6.614;2023-08-12T13:15:50;21.10;99.90
61841;DHT22;47773;53.174;6.614;2023-08-12T13:18:16;21.30;99.90
61841;DHT22;47773;53.174;6.614;2023-08-12T13:20:42;21.40;99.90
61841;DHT22;47773;53.174;6.614;2023-08-12T13:23:08;21.60;99.90
61841;DHT22;47773;53.174;6.614;2023-08-12T13:25:34;21.60;99.90
61841;DHT22;47773;53.174;6.614;2023-08-12T13:28:01;21.70;99.90
61841;DHT22;47773;53.174;6.614;2023-08-12T13:30:28;21.60;99.90
61841;DHT22;47773;53.174;6.614;2023-08-12T13:32:54;21.70;99.90
61841;DHT22;47773;53.174;6.614;2023-08-12T13:35:21;21.70;99.90
61841;DHT22;47773;53.174;6.614;2023-08-12T13:37:47;21.80;99.90
61841;DHT22;47773;53.174;6.614;2023-08-12T13:40:12;21.90;99.90
61841;DHT22;47773;53.174;6.614;2023-08-12T13:42:41;21.90;99.90
61841;DHT22;47773;53.174;6.614;2023-08-12T13:45:07;21.90;99.90
61841;DHT22;47773;53.174;6.614;2023-08-12T13:47:34;22.00;99.90
61841;DHT22;47773;53.174;6.614;2023-08-12T13:50:00;22.00;99.90
61841;DHT22;47773;53.174;6.614;2023-08-12T13:52:25;22.10;99.90
61841;DHT22;47773;53.174;6.614;2023-08-12T13:54:51;22.10;99.90
61841;DHT22;47773;53.174;6.614;2023-08-12T13:57:17;22.10;99.90
61841;DHT22;47773;53.174;6.614;2023-08-12T13:59:42;22.10;99.90
61841;DHT22;47773;53.174;6.614;2023-08-12T14:02:10;22.10;99.90
61841;DHT22;47773;53.174;6.614;2023-08-12T14:04:36;22.30;99.90
61841;DHT22;47773;53.174;6.614;2023-08-12T14:07:03;22.30;99.90
61841;DHT22;47773;53.174;6.614;2023-08-12T14:09:31;22.30;99.90
61841;DHT22;47773;53.174;6.614;2023-08-12T14:11:57;22.40;99.90
61841;DHT22;47773;53.174;6.614;2023-08-12T14:14:23;22.40;99.90
61841;DHT22;47773;53.174;6.614;2023-08-12T14:16:49;22.40;99.90
61841;DHT22;47773;53.174;6.614;2023-08-12T14:19:14;22.40;99.90
61841;DHT22;47773;53.174;6.614;2023-08-12T14:21:42;22.30;99.90
61841;DHT22;47773;53.174;6.614;2023-08-12T14:24:08;22.30;99.90
61841;DHT22;47773;53.174;6.614;2023-08-12T14:26:34;22.40;99.90
61841;DHT22;47773;53.174;6.614;2023-08-12T14:29:00;22.40;99.90
61841;DHT22;47773;53.174;6.614;2023-08-12T14:31:26;22.40;99.90
61841;DHT22;47773;53.174;6.614;2023-08-12T14:33:52;22.30;99.90
61841;DHT22;47773;53.174;6.614;2023-08-12T14:36:17;22.40;99.90
61841;DHT22;47773;53.174;6.614;2023-08-12T14:38:43;22.40;99.90
61841;DHT22;47773;53.174;6.614;2023-08-12T14:41:09;22.40;99.90
61841;DHT22;47773;53.174;6.614;2023-08-12T14:43:34;22.40;99.90
61841;DHT22;47773;53.174;6.614;2023-08-12T14:46:00;22.40;99.90
61841;DHT22;47773;53.174;6.614;2023-08-12T14:48:26;22.40;99.90
61841;DHT22;47773;53.174;6.614;2023-08-12T14:50:52;22.40;99.90
61841;DHT22;47773;53.174;6.614;2023-08-12T14:53:17;22.50;99.90
61841;DHT22;47773;53.174;6.614;2023-08-12T14:55:43;22.40;99.90
61841;DHT22;47773;53.174;6.614;2023-08-12T14:58:09;22.50;99.90
61841;DHT22;47773;53.174;6.614;2023-08-12T15:00:34;22.50;99.90
61841;DHT22;47773;53.174;6.614;2023-08-12T15:03:00;22.50;99.90
61841;DHT22;47773;53.174;6.614;2023-08-12T15:05:26;22.50;99.90
61841;DHT22;47773;53.174;6.614;2023-08-12T15:07:51;22.50;99.90
61841;DHT22;47773;53.174;6.614;2023-08-12T15:10:17;22.50;99.90
61841;DHT22;47773;53.174;6.614;2023-08-12T15:12:42;22.50;99.90
61841;DHT22;47773;53.174;6.614;2023-08-12T15:15:08;22.50;99.90
61841;DHT22;47773;53.174;6.614;2023-08-12T15:17:34;22.40;99.90
61841;DHT22;47773;53.174;6.614;2023-08-12T15:20:00;22.40;99.90
61841;DHT22;47773;53.174;6.614;2023-08-12T15:22:25;22.40;99.90
61841;DHT22;47773;53.174;6.614;2023-08-12T15:24:51;22.40;99.90
61841;DHT22;47773;53.174;6.614;2023-08-12T15:27:18;22.30;99.90